Time;durP1;ratioP1;P1;durP2;ratioP2;P2;SDS_P1;SDS_P2;PMS_P1;PMS_P2;Temp;Humidity;BMP_temperature;BMP_pressure;BME280_temperature;BME280_humidity;BME280_pressure;Samples;Min_cycle;Max_cycle;Signal;HPM_P1;HPM_P2
2021/09/30 00:00:16;;;;;;;7.58;5.17;;;;;;;10.96;81.99;98511.34;1761724;81;20955;-89
2021/09/30 00:02:45;;;;;;;8.10;4.83;;;;;;;10.94;81.89;98510.52;1778421;81;21077;-90
2021/09/30 00:05:12;;;;;;;8.83;4.95;;;;;;;10.93;81.54;98507.46;1754752;80;21451;-91
2021/09/30 00:07:39;;;;;;;10.43;5.05;;;;;;;10.90;81.45;98512.38;1751510;81;21432;-89
2021/09/30 00:10:10;;;;;;;9.03;5.62;;;;;;;10.88;81.00;98512.00;1775540;81;21443;-90
2021/09/30 00:12:42;;;;;;;9.88;5.15;;;;;;;10.83;80.91;98512.97;1772313;81;21028;-88
2021/09/30 00:15:10;;;;;;;9.68;5.53;;;;;;;10.81;80.94;98517.41;1767994;80;21009;-88
2021/09/30 00:18:26;;;;;;;9.73;5.40;;;;;;;10.78;80.91;98514.85;1762119;81;21003;-89
2021/09/30 00:42:10;;;;;;;8.75;5.42;;;;;;;10.50;80.38;98519.41;1745715;81;21519;-91
2021/09/30 00:47:36;;;;;;;8.48;5.30;;;;;;;10.51;80.53;98521.63;1745959;81;20115;-91
2021/09/30 00:49:55;;;;;;;8.23;5.47;;;;;;;10.49;80.63;98515.02;1755539;80;21452;-89
2021/09/30 03:00:44;;;;;;;11.85;7.37;;;;;;;8.94;81.23;98528.71;1760359;81;20972;-90
2021/09/30 03:03:13;;;;;;;12.37;7.45;;;;;;;8.86;81.04;98531.91;1751012;82;21008;-90
2021/09/30 03:05:41;;;;;;;13.38;7.45;;;;;;;8.81;81.37;98530.63;1748498;81;21031;-91
2021/09/30 03:08:08;;;;;;;14.25;7.62;;;;;;;8.77;81.07;98531.59;1742761;82;21030;-90
2021/09/30 03:10:36;;;;;;;13.78;7.35;;;;;;;8.75;81.32;98532.50;1759407;81;21004;-90
2021/09/30 03:13:05;;;;;;;12.23;7.47;;;;;;;8.74;81.28;98536.91;1750837;82;21008;-91
2021/09/30 03:15:43;;;;;;;13.40;6.72;;;;;;;8.73;81.08;98531.63;1749714;81;21022;-90
2021/09/30 03:23:15;;;;;;;15.00;7.37;;;;;;;8.62;81.17;98532.66;1756987;81;20976;-90
2021/09/30 03:25:46;;;;;;;13.32;6.95;;;;;;;8.61;81.11;98535.31;1759375;81;21030;-90
2021/09/30 03:28:14;;;;;;;10.63;6.53;;;;;;;8.62;81.14;98537.94;1767369;81;21010;-90
2021/09/30 03:30:41;;;;;;;10.63;6.92;;;;;;;8.63;81.12;98537.50;1747703;82;21018;-90
2021/09/30 03:33:09;;;;;;;12.68;6.87;;;;;;;8.64;81.13;98541.89;1722644;82;21041;-90
2021/09/30 03:35:39;;;;;;;13.62;6.25;;;;;;;8.64;81.15;98541.42;1736003;81;21057;-90
2021/09/30 03:38:08;;;;;;;14.00;6.25;;;;;;;8.65;81.55;98543.19;1748273;81;20978;-90
2021/09/30 03:40:37;;;;;;;14.58;6.97;;;;;;;8.65;81.69;98539.66;1747648;82;21423;-90
2021/09/30 03:43:05;;;;;;;11.60;6.00;;;;;;;8.68;81.69;98543.60;1747950;82;21014;-90
2021/09/30 03:45:34;;;;;;;13.25;6.22;;;;;;;8.69;81.74;98546.66;1760172;81;20971;-90
2021/09/30 03:48:15;;;;;;;13.03;7.08;;;;;;;8.73;82.03;98548.81;1717713;83;21038;-90
2021/09/30 03:50:56;;;;;;;14.45;6.72;;;;;;;8.74;82.20;98546.59;1718072;83;21053;-89
2021/09/30 03:53:26;;;;;;;17.57;6.42;;;;;;;8.74;82.34;98547.91;1718274;83;21077;-90
2021/09/30 04:01:11;;;;;;;13.10;6.80;;;;;;;8.77;82.30;98536.88;1747967;82;20954;-90
2021/09/30 04:03:39;;;;;;;13.98;7.53;;;;;;;8.79;82.19;98542.11;1747979;82;21420;-90
2021/09/30 04:06:05;;;;;;;12.03;7.67;;;;;;;8.77;81.33;98540.84;1751633;81;20966;-90
2021/09/30 04:08:32;;;;;;;16.17;7.72;;;;;;;8.73;81.14;98547.49;1750560;82;21095;-90
2021/09/30 04:10:59;;;;;;;13.43;8.05;;;;;;;8.67;80.94;98549.32;1753481;82;21439;-90
2021/09/30 04:13:25;;;;;;;16.40;8.90;;;;;;;8.67;80.95;98548.44;1753475;81;21003;-90
2021/09/30 04:15:52;;;;;;;17.77;10.50;;;;;;;8.66;81.10;98548.02;1758356;80;21459;-90
2021/09/30 04:18:19;;;;;;;18.32;8.78;;;;;;;8.66;80.97;98553.30;1753513;82;20997;-90
2021/09/30 04:20:47;;;;;;;16.25;8.58;;;;;;;8.67;81.26;98553.72;1746880;82;21069;-89
2021/09/30 04:23:14;;;;;;;19.17;9.03;;;;;;;8.67;81.36;98561.21;1746772;82;21500;-89
2021/09/30 04:25:40;;;;;;;14.20;8.45;;;;;;;8.66;81.18;98558.14;1749774;81;20978;-89
2021/09/30 04:28:07;;;;;;;19.27;9.23;;;;;;;8.64;80.99;98555.95;1723922;82;21056;-90
2021/09/30 04:30:34;;;;;;;13.08;8.83;;;;;;;8.64;81.20;98555.09;1746762;82;20970;-90
2021/09/30 04:33:03;;;;;;;20.43;8.78;;;;;;;8.64;80.98;98551.98;1745006;81;21042;-89
2021/09/30 04:35:31;;;;;;;14.43;8.98;;;;;;;8.63;81.02;98556.85;1767050;79;21459;-90
2021/09/30 04:37:58;;;;;;;15.55;8.55;;;;;;;8.64;81.00;98555.09;1748736;82;21023;-90
2021/09/30 04:40:24;;;;;;;18.37;10.15;;;;;;;8.62;80.71;98559.08;1750314;81;21009;-90
2021/09/30 04:42:51;;;;;;;14.30;9.88;;;;;;;8.64;80.78;98559.92;1745849;81;21001;-90
2021/09/30 04:45:17;;;;;;;17.98;11.18;;;;;;;8.67;80.69;98561.21;1751701;82;20990;-89
2021/09/30 04:47:46;;;;;;;20.37;10.60;;;;;;;8.68;80.40;98560.31;1777515;81;21049;-90
2021/09/30 04:50:14;;;;;;;18.82;10.48;;;;;;;8.71;80.59;98564.68;1777538;81;21041;-89
2021/09/30 04:52:41;;;;;;;22.62;10.78;;;;;;;8.73;80.30;98562.91;1765430;81;21475;-89
2021/09/30 04:55:09;;;;;;;24.65;11.55;;;;;;;8.77;80.33;98565.06;1762120;81;20965;-90
2021/09/30 04:57:35;;;;;;;15.45;9.70;;;;;;;8.80;80.36;98563.71;1762131;81;21390;-90
2021/09/30 05:00:03;;;;;;;19.25;10.93;;;;;;;8.84;80.24;98566.71;1762001;81;21059;-91
2021/09/30 05:02:48;;;;;;;19.17;10.08;;;;;;;8.88;80.22;98568.89;1766605;81;21042;-91
2021/09/30 05:05:15;;;;;;;20.00;9.80;;;;;;;8.89;78.73;98575.45;1753661;81;20961;-89
2021/09/30 05:07:43;;;;;;;18.10;10.45;;;;;;;8.87;79.07;98569.33;1753176;80;21000;-89
2021/09/30 05:10:12;;;;;;;19.82;10.13;;;;;;;8.93;79.74;98574.98;1736464;83;21428;-88
2021/09/30 05:12:38;;;;;;;29.87;11.85;;;;;;;9.02;79.88;98579.27;1760979;80;20978;-90
2021/09/30 05:15:06;;;;;;;20.85;10.18;;;;;;;9.06;80.19;98573.90;1753703;82;21418;-90
2021/09/30 05:17:33;;;;;;;20.45;10.23;;;;;;;9.14;80.14;98580.44;1750623;81;20991;-90
2021/09/30 05:19:59;;;;;;;20.82;10.72;;;;;;;9.19;79.37;98585.20;1757139;82;20988;-90
2021/09/30 05:22:26;;;;;;;19.87;10.03;;;;;;;9.24;79.40;98582.48;1742504;81;21397;-89
2021/09/30 05:24:52;;;;;;;19.95;9.33;;;;;;;9.29;79.13;98589.89;1733794;82;21026;-90
2021/09/30 05:27:19;;;;;;;12.07;9.00;;;;;;;9.34;79.36;98580.59;1744934;82;21011;-90
2021/09/30 05:29:45;;;;;;;21.20;9.03;;;;;;;9.38;79.12;98584.47;1744921;82;21447;-90
2021/09/30 05:32:12;;;;;;;16.48;8.23;;;;;;;9.41;78.68;98588.84;1751220;81;20950;-90
2021/09/30 05:34:52;;;;;;;15.10;7.15;;;;;;;9.45;78.17;98593.19;1744555;82;21086;-90
2021/09/30 05:37:19;;;;;;;9.33;6.40;;;;;;;9.49;78.44;98598.87;1745107;82;21026;-90
2021/09/30 05:39:46;;;;;;;12.00;6.95;;;;;;;9.49;77.47;98592.69;1744950;82;21026;-90
2021/09/30 05:42:13;;;;;;;12.95;6.60;;;;;;;9.48;76.32;98593.59;1751000;81;21539;-90
2021/09/30 05:44:41;;;;;;;13.80;6.97;;;;;;;9.50;77.07;98599.28;1738991;81;21002;-90
2021/09/30 05:47:09;;;;;;;10.85;6.25;;;;;;;9.53;77.09;98593.06;1773858;81;20959;-90
2021/09/30 05:49:35;;;;;;;11.83;6.20;;;;;;;9.58;77.82;98592.55;1728043;81;21042;-90
2021/09/30 05:52:04;;;;;;;14.03;7.28;;;;;;;9.67;77.53;98599.92;1766321;80;21026;-90
2021/09/30 05:54:33;;;;;;;16.52;6.45;;;;;;;9.73;76.92;98599.37;1774122;80;21364;-90
2021/09/30 05:57:01;;;;;;;10.45;6.08;;;;;;;9.83;77.19;98592.58;1774103;80;21117;-90
2021/09/30 05:59:28;;;;;;;10.00;6.25;;;;;;;9.92;77.56;98587.59;1746213;81;21420;-90
2021/09/30 06:12:35;;;;;;;16.97;6.58;;;;;;;10.36;76.38;98600.92;1745224;82;21054;-90
2021/09/30 06:15:00;;;;;;;15.13;6.28;;;;;;;10.46;75.95;98593.72;1744962;82;21022;-90
2021/09/30 06:17:28;;;;;;;11.15;5.85;;;;;;;10.55;75.34;98594.87;1748072;81;21404;-89
2021/09/30 06:19:55;;;;;;;11.45;6.17;;;;;;;10.65;75.22;98594.22;1753671;81;21405;-90
2021/09/30 06:22:22;;;;;;;12.73;6.30;;;;;;;10.74;73.70;98594.47;1745196;82;21026;-90
2021/09/30 06:24:49;;;;;;;16.55;6.62;;;;;;;10.81;74.13;98593.45;1745157;82;21006;-89
2021/09/30 06:27:15;;;;;;;14.07;5.87;;;;;;;10.88;73.62;98595.53;1745581;81;21038;-90
2021/09/30 06:29:42;;;;;;;15.63;6.80;;;;;;;10.92;73.71;98594.09;1756748;81;21508;-89
2021/09/30 06:32:09;;;;;;;11.88;6.00;;;;;;;10.97;73.31;98597.98;1744924;82;20986;-90
2021/09/30 06:34:54;;;;;;;12.65;5.95;;;;;;;11.01;73.38;98598.78;1664945;86;21517;-90
2021/09/30 06:37:23;;;;;;;11.80;6.05;;;;;;;11.08;73.19;98603.03;1722024;81;21002;-90
2021/09/30 06:39:50;;;;;;;16.07;5.42;;;;;;;11.15;72.59;98599.36;1774050;81;21023;-90
2021/09/30 06:42:19;;;;;;;15.38;5.92;;;;;;;11.22;72.25;98602.75;1773904;81;20963;-87
2021/09/30 06:44:47;;;;;;;10.72;6.17;;;;;;;11.27;72.38;98600.86;1775517;81;21002;-90
2021/09/30 06:47:36;;;;;;;9.88;6.00;;;;;;;11.35;72.81;98605.99;1775483;81;21006;-90
2021/09/30 06:50:06;;;;;;;12.73;5.30;;;;;;;11.43;71.66;98604.05;1769378;80;21006;-89
2021/09/30 06:52:50;;;;;;;11.97;5.35;;;;;;;11.51;72.10;98605.63;1744877;82;21110;-90
2021/09/30 06:55:35;;;;;;;;;;;;;;;11.60;72.60;98608.96;1747521;82;21018;-90
2021/09/30 06:58:15;;;;;;;11.20;5.15;;;;;;;11.67;72.41;98604.34;1753835;80;20088;-89
2021/09/30 07:00:56;;;;;;;10.35;5.30;;;;;;;11.74;70.82;98610.38;1650498;86;21125;-88
2021/09/30 07:03:40;;;;;;;18.75;6.85;;;;;;;11.81;69.95;98615.09;1744833;82;21090;-90
2021/09/30 07:06:18;;;;;;;13.60;5.53;;;;;;;11.84;70.35;98615.88;1744907;82;21448;-91
2021/09/30 07:08:45;;;;;;;15.78;6.10;;;;;;;11.89;70.32;98615.31;1754770;81;20990;-91
2021/09/30 07:11:11;;;;;;;10.18;5.78;;;;;;;11.96;71.15;98612.52;1730121;82;21062;-91
2021/09/30 07:13:37;;;;;;;13.00;5.85;;;;;;;12.01;70.40;98610.14;1753264;82;21068;-91
2021/09/30 07:16:05;;;;;;;15.13;5.85;;;;;;;12.06;70.61;98612.73;1753594;81;20987;-91
2021/09/30 07:18:31;;;;;;;17.02;6.78;;;;;;;12.12;69.80;98610.36;1759336;80;20981;-91
2021/09/30 07:20:59;;;;;;;12.85;5.83;;;;;;;12.17;69.97;98608.92;1780059;80;21481;-91
2021/09/30 07:23:28;;;;;;;11.48;5.92;;;;;;;12.19;69.46;98611.95;1784207;80;21034;-91
2021/09/30 07:25:55;;;;;;;11.57;5.25;;;;;;;12.25;70.00;98614.45;1784361;80;21013;-89
2021/09/30 07:28:22;;;;;;;15.85;6.60;;;;;;;12.29;69.34;98616.55;1775444;80;20998;-88
2021/09/30 07:30:49;;;;;;;15.50;5.58;;;;;;;12.28;67.33;98617.03;1779359;80;21395;-89
2021/09/30 07:33:17;;;;;;;11.20;5.90;;;;;;;12.29;68.17;98615.23;1779306;81;21397;-88
2021/09/30 07:35:44;;;;;;;13.88;6.03;;;;;;;12.31;68.24;98618.73;1779341;81;21001;-88
2021/09/30 07:38:10;;;;;;;13.83;5.87;;;;;;;12.33;68.35;98618.23;1762296;80;20966;-88
2021/09/30 07:40:37;;;;;;;21.52;6.37;;;;;;;12.37;68.15;98620.37;1753548;82;21081;-88
2021/09/30 07:43:04;;;;;;;14.25;5.87;;;;;;;12.39;67.62;98616.75;1753255;82;20958;-89
2021/09/30 07:45:30;;;;;;;10.78;5.67;;;;;;;12.40;68.08;98614.50;1753324;82;21067;-88
2021/09/30 07:47:57;;;;;;;13.05;5.83;;;;;;;12.44;67.74;98618.39;1764013;80;21057;-88
2021/09/30 07:50:25;;;;;;;15.55;5.47;;;;;;;12.45;65.92;98613.52;1753754;80;20974;-89
2021/09/30 07:52:52;;;;;;;9.68;6.12;;;;;;;12.51;67.76;98618.17;1753487;82;21049;-89
2021/09/30 07:55:18;;;;;;;12.75;5.00;;;;;;;12.57;67.54;98624.27;1753366;81;21006;-89
2021/09/30 07:57:45;;;;;;;15.50;5.45;;;;;;;12.61;67.47;98621.47;1763955;80;20973;-89
2021/09/30 08:00:12;;;;;;;9.60;5.05;;;;;;;12.68;67.44;98612.39;1753464;82;21097;-89
2021/09/30 08:02:49;;;;;;;10.95;5.37;;;;;;;12.72;64.91;98614.53;1753537;82;21010;-88
2021/09/30 08:05:13;;;;;;;14.87;5.75;;;;;;;12.74;65.10;98614.02;1753749;81;21498;-88
2021/09/30 08:07:39;;;;;;;11.43;5.22;;;;;;;12.83;66.03;98612.87;1778466;80;21012;-90
2021/09/30 08:10:07;;;;;;;14.93;5.60;;;;;;;12.88;66.44;98614.94;1747667;82;21021;-91
2021/09/30 08:12:33;;;;;;;12.43;6.30;;;;;;;12.92;64.90;98617.07;1745053;81;20967;-91
2021/09/30 08:15:00;;;;;;;12.75;4.78;;;;;;;13.00;66.35;98616.84;1771169;80;21444;-91
2021/09/30 08:17:26;;;;;;;13.32;5.08;;;;;;;13.07;66.17;98613.07;1744881;82;21026;-89
2021/09/30 08:19:53;;;;;;;11.48;4.72;;;;;;;13.14;65.91;98615.09;1744967;82;21022;-90
2021/09/30 08:22:19;;;;;;;11.20;5.35;;;;;;;13.19;65.56;98618.04;1772738;81;20994;-90
2021/09/30 08:24:46;;;;;;;7.70;5.05;;;;;;;13.25;65.71;98610.78;1775262;81;20943;-90
2021/09/30 08:27:12;;;;;;;10.40;5.33;;;;;;;13.32;65.31;98605.67;1747192;81;21466;-89
2021/09/30 08:29:39;;;;;;;14.45;5.83;;;;;;;13.40;65.87;98606.31;1745092;82;20994;-89
2021/09/30 08:32:06;;;;;;;13.53;5.42;;;;;;;13.49;66.09;98606.50;1769089;81;21041;-90
2021/09/30 08:34:32;;;;;;;10.08;4.60;;;;;;;13.58;66.38;98607.55;1775612;81;21463;-90
2021/09/30 08:36:59;;;;;;;12.82;5.42;;;;;;;13.68;65.93;98607.25;1766454;81;20973;-89
2021/09/30 08:39:26;;;;;;;7.37;4.92;;;;;;;13.80;66.47;98612.20;1765175;81;20984;-90
2021/09/30 08:41:55;;;;;;;7.12;4.50;;;;;;;13.91;65.57;98602.48;1751373;81;21018;-91
2021/09/30 08:44:23;;;;;;;10.82;4.85;;;;;;;14.03;66.01;98608.35;1744898;82;21002;-90
2021/09/30 08:46:50;;;;;;;10.53;4.80;;;;;;;14.12;65.88;98600.05;1759739;80;21024;-88
2021/09/30 08:49:16;;;;;;;12.15;5.53;;;;;;;14.21;65.78;98601.52;1765461;81;20963;-87
2021/09/30 08:51:43;;;;;;;10.65;5.00;;;;;;;14.25;65.54;98606.67;1753141;80;21042;-87
2021/09/30 08:54:09;;;;;;;10.98;4.62;;;;;;;14.32;65.42;98603.81;1770427;81;20959;-88
2021/09/30 08:56:36;;;;;;;9.83;4.75;;;;;;;14.34;63.48;98606.83;1756450;81;20983;-89
2021/09/30 08:59:28;;;;;;;10.05;4.70;;;;;;;14.35;64.02;98604.56;1744995;82;21025;-89
2021/09/30 09:02:15;;;;;;;8.40;4.90;;;;;;;14.38;64.41;98604.92;1765883;80;20990;-89
2021/09/30 09:04:59;;;;;;;8.83;4.40;;;;;;;14.43;64.39;98609.62;1775749;81;21002;-89
2021/09/30 09:07:29;;;;;;;12.50;5.17;;;;;;;14.49;63.03;98607.22;1765593;81;20953;-89
2021/09/30 09:10:01;;;;;;;10.28;4.83;;;;;;;14.55;63.96;98603.44;1772066;81;21008;-89
2021/09/30 09:12:31;;;;;;;9.08;5.00;;;;;;;14.66;63.20;98607.94;1756057;80;20978;-90
2021/09/30 09:14:59;;;;;;;11.65;5.10;;;;;;;14.80;64.05;98603.91;1753499;80;21065;-89
2021/09/30 09:17:26;;;;;;;11.45;4.92;;;;;;;14.93;63.71;98608.31;1753406;82;21005;-89
2021/09/30 09:19:57;;;;;;;8.98;4.40;;;;;;;15.09;64.02;98605.48;1753445;81;21486;-90
2021/09/30 09:22:35;;;;;;;10.75;4.60;;;;;;;15.26;63.39;98602.62;1779379;79;21375;-89
2021/09/30 09:25:15;;;;;;;9.83;4.85;;;;;;;15.42;63.25;98605.56;1778058;80;20953;-90
2021/09/30 09:27:57;;;;;;;11.30;5.10;;;;;;;15.55;62.23;98605.94;1777236;81;21675;-89
2021/09/30 09:30:43;;;;;;;10.93;4.70;;;;;;;15.65;61.47;98601.11;1778826;81;20933;-89
2021/09/30 09:33:28;;;;;;;6.20;4.55;;;;;;;15.73;61.63;98605.66;1723735;83;21395;-90
2021/09/30 09:36:08;;;;;;;12.47;4.78;;;;;;;15.89;60.94;98607.69;1722952;83;21033;-89
2021/09/30 09:38:50;;;;;;;12.30;4.80;;;;;;;16.01;61.79;98613.02;1746598;81;21391;-90
2021/09/30 09:41:32;;;;;;;12.40;5.35;;;;;;;16.18;60.97;98609.63;1770706;80;21073;-90
2021/09/30 09:44:04;;;;;;;10.63;4.25;;;;;;;16.29;60.34;98600.70;1753688;82;21029;-90
2021/09/30 09:46:40;;;;;;;15.05;5.55;;;;;;;16.43;61.40;98604.10;1753534;82;21006;-89
2021/09/30 09:49:19;;;;;;;8.28;5.12;;;;;;;16.55;60.78;98603.15;1769613;81;20965;-90
2021/09/30 09:51:48;;;;;;;6.85;4.62;;;;;;;16.61;59.37;98598.89;1766371;80;21017;-89
2021/09/30 09:54:22;;;;;;;7.55;4.33;;;;;;;16.67;58.87;98597.72;1753638;80;20975;-89
2021/09/30 09:56:53;;;;;;;16.82;4.95;;;;;;;16.79;59.59;98599.86;1753712;82;21009;-89
2021/09/30 09:59:31;;;;;;;12.13;5.47;;;;;;;16.89;58.23;98599.83;1771523;81;21013;-89
2021/09/30 10:01:58;;;;;;;12.88;5.10;;;;;;;16.96;58.86;98604.90;1764066;80;21470;-90
2021/09/30 10:04:27;;;;;;;13.72;5.15;;;;;;;17.01;58.39;98598.41;1753482;82;21427;-90
2021/09/30 10:06:53;;;;;;;12.88;4.85;;;;;;;17.12;58.76;98596.61;1753765;82;20958;-90
2021/09/30 10:09:21;;;;;;;10.28;5.70;;;;;;;17.21;56.70;98595.29;1753164;81;21002;-90
2021/09/30 10:11:48;;;;;;;9.80;4.87;;;;;;;17.34;58.35;98600.05;1762419;81;21451;-90
2021/09/30 10:14:15;;;;;;;8.40;4.85;;;;;;;17.49;57.90;98593.98;1778674;81;21033;-90
2021/09/30 10:16:47;;;;;;;7.87;4.70;;;;;;;17.60;57.79;98595.27;1770309;81;21018;-87
2021/09/30 10:19:13;;;;;;;7.10;4.45;;;;;;;17.76;58.28;98598.91;1751480;81;21301;-89
2021/09/30 10:21:40;;;;;;;8.45;5.05;;;;;;;17.99;57.50;98596.03;1774891;81;21037;-89
2021/09/30 10:24:16;;;;;;;11.78;5.20;;;;;;;18.11;55.90;98590.55;1749791;82;21018;-89
2021/09/30 10:27:02;;;;;;;15.55;4.87;;;;;;;18.26;56.00;98588.41;1754820;81;21031;-88
2021/09/30 10:29:47;;;;;;;8.50;5.35;;;;;;;18.45;53.21;98582.97;1753550;82;21077;-89
2021/09/30 10:32:18;;;;;;;8.10;4.87;;;;;;;18.95;54.75;98574.96;1753598;81;20955;-88
2021/09/30 10:34:59;;;;;;;8.45;4.60;;;;;;;19.71;53.67;98575.71;1740973;82;21022;-88
2021/09/30 10:37:26;;;;;;;7.67;4.33;;;;;;;20.43;52.63;98571.94;1739252;82;21061;-91
2021/09/30 10:40:21;;;;;;;9.60;5.20;;;;;;;21.24;48.55;98568.78;1740161;82;21022;-90
2021/09/30 10:42:56;;;;;;;9.45;4.75;;;;;;;22.04;49.69;98568.54;1758921;81;21450;-91
2021/09/30 10:45:36;;;;;;;7.70;4.22;;;;;;;22.83;47.94;98564.95;1780278;81;21069;-91
2021/09/30 10:48:10;;;;;;;11.25;5.20;;;;;;;23.48;48.14;98564.86;1779992;80;21026;-90
2021/09/30 10:50:49;;;;;;;13.25;7.92;;;;;;;24.19;45.73;98563.23;1776047;81;21026;-89
2021/09/30 10:53:15;;;;;;;10.63;5.78;;;;;;;24.68;43.45;98546.83;1781725;80;21017;-90
2021/09/30 10:55:42;;;;;;;9.55;4.75;;;;;;;25.08;43.44;98552.30;1764702;80;21064;-89
2021/09/30 10:58:23;;;;;;;7.05;4.75;;;;;;;25.60;39.47;98547.17;1754113;79;21015;-90
2021/09/30 11:00:58;;;;;;;5.58;4.30;;;;;;;26.12;41.13;98541.05;1759972;80;20985;-90
2021/09/30 11:03:27;;;;;;;9.98;4.83;;;;;;;26.66;40.40;98538.75;1746316;81;20983;-91
2021/09/30 11:06:12;;;;;;;10.20;4.22;;;;;;;26.92;37.80;98538.29;1756123;80;21015;-90
2021/09/30 11:08:39;;;;;;;10.95;4.58;;;;;;;26.91;38.54;98539.30;1759462;81;21036;-89
2021/09/30 11:11:12;;;;;;;12.40;4.83;;;;;;;26.49;34.32;98537.03;1763604;79;21078;-90
2021/09/30 11:13:45;;;;;;;13.13;5.40;;;;;;;25.88;35.19;98535.35;1748281;80;21443;-89
2021/09/30 11:16:18;;;;;;;11.00;5.17;;;;;;;26.18;37.45;98539.16;1763907;81;21529;-89
2021/09/30 11:18:58;;;;;;;8.23;4.83;;;;;;;26.13;35.96;98541.41;1765332;81;21024;-91
2021/09/30 11:21:37;;;;;;;11.35;5.08;;;;;;;25.41;36.14;98541.88;1765455;81;21008;-90
2021/09/30 11:24:12;;;;;;;7.35;5.10;;;;;;;24.71;37.36;98547.47;1751255;81;20949;-91
2021/09/30 11:26:56;;;;;;;11.85;5.45;;;;;;;24.16;38.43;98549.44;1765151;80;21457;-90
2021/09/30 11:29:29;;;;;;;8.58;5.08;;;;;;;24.03;38.49;98541.88;1765158;81;21027;-90
2021/09/30 11:32:04;;;;;;;8.55;5.25;;;;;;;23.38;37.68;98543.53;1759619;81;21037;-90
2021/09/30 11:34:46;;;;;;;9.43;5.00;;;;;;;23.17;38.82;98537.34;1775620;81;21400;-90
2021/09/30 11:37:19;;;;;;;7.22;4.65;;;;;;;23.14;41.08;98534.38;1774472;80;21042;-90
2021/09/30 11:39:50;;;;;;;8.05;5.10;;;;;;;23.37;40.98;98537.75;1766476;81;20970;-90
2021/09/30 11:42:23;;;;;;;9.65;5.08;;;;;;;23.49;41.35;98537.33;1754666;81;20956;-90
2021/09/30 11:44:58;;;;;;;12.68;4.78;;;;;;;24.20;40.61;98535.19;1765526;81;20957;-90
2021/09/30 11:47:27;;;;;;;12.47;5.00;;;;;;;24.13;40.03;98528.88;1764271;81;21000;-88
2021/09/30 11:49:55;;;;;;;8.45;5.30;;;;;;;24.34;40.25;98535.46;1754595;81;21380;-89
2021/09/30 11:52:21;;;;;;;8.70;5.08;;;;;;;23.98;38.13;98536.32;1774055;80;21002;-91
2021/09/30 11:54:48;;;;;;;8.60;4.80;;;;;;;23.32;38.83;98526.78;1775513;81;21033;-91
2021/09/30 11:57:27;;;;;;;7.95;4.58;;;;;;;23.09;40.40;98527.09;1775431;81;21003;-90
2021/09/30 12:00:14;;;;;;;16.60;5.08;;;;;;;22.99;41.39;98529.59;1750046;81;21087;-90
2021/09/30 12:03:05;;;;;;;11.60;5.40;;;;;;;22.72;42.00;98528.39;1725409;81;20963;-90
2021/09/30 12:05:36;;;;;;;10.58;5.10;;;;;;;22.50;41.47;98521.80;1693856;85;21060;-91
2021/09/30 12:08:06;;;;;;;10.80;5.37;;;;;;;22.31;42.70;98525.78;1732178;82;21045;-91
2021/09/30 12:10:36;;;;;;;11.45;5.22;;;;;;;21.95;41.39;98525.98;1752673;80;21006;-91
2021/09/30 12:13:21;;;;;;;10.50;5.37;;;;;;;21.79;43.25;98520.28;1778488;81;21023;-91
2021/09/30 12:15:50;;;;;;;9.50;5.33;;;;;;;21.31;44.16;98523.43;1778851;81;21015;-90
2021/09/30 12:18:21;;;;;;;8.53;5.25;;;;;;;21.31;44.16;98523.43;1778589;81;20991;-90
2021/09/30 12:20:54;;;;;;;9.88;5.78;;;;;;;21.18;44.94;98509.89;1753667;81;21475;-90
2021/09/30 12:23:21;;;;;;;9.18;4.85;;;;;;;21.18;44.94;98509.89;1748112;82;20975;-90
2021/09/30 12:25:48;;;;;;;13.90;5.20;;;;;;;20.99;44.60;98519.64;1748044;82;21046;-90
2021/09/30 12:28:15;;;;;;;14.23;5.37;;;;;;;20.92;45.35;98521.89;1748064;82;20986;-90
2021/09/30 12:30:43;;;;;;;9.23;5.20;;;;;;;20.95;45.00;98511.77;1750911;81;21386;-90
2021/09/30 12:33:10;;;;;;;11.03;5.75;;;;;;;20.92;45.62;98520.04;1747966;82;20989;-89
2021/09/30 12:35:41;;;;;;;11.53;5.67;;;;;;;20.86;46.02;98512.80;1748139;82;21034;-89
2021/09/30 12:38:18;;;;;;;9.38;5.10;;;;;;;20.68;46.35;98513.86;1748025;82;21049;-90
2021/09/30 12:40:53;;;;;;;12.07;5.15;;;;;;;20.52;47.02;98518.49;1751251;81;21014;-90
2021/09/30 12:43:30;;;;;;;10.32;5.40;;;;;;;20.50;45.95;98512.32;1748061;81;21388;-90
2021/09/30 12:46:05;;;;;;;12.28;6.25;;;;;;;20.42;46.19;98511.45;1748104;82;20994;-90
2021/09/30 12:48:35;;;;;;;10.18;5.28;;;;;;;20.43;46.84;98515.41;1748245;81;20994;-90
2021/09/30 12:51:12;;;;;;;12.03;5.20;;;;;;;20.43;46.70;98509.17;1753979;80;21031;-90
2021/09/30 12:53:49;;;;;;;10.18;5.37;;;;;;;20.39;47.48;98512.51;1746528;82;21030;-89
2021/09/30 12:56:22;;;;;;;11.55;5.30;;;;;;;20.39;47.09;98509.81;1766836;80;20966;-90
2021/09/30 12:58:52;;;;;;;12.80;6.08;;;;;;;20.30;48.04;98511.27;1777344;81;20990;-90
2021/09/30 13:01:25;;;;;;;10.88;5.72;;;;;;;20.28;46.80;98510.50;1761660;81;21091;-90
2021/09/30 13:04:09;;;;;;;11.90;5.00;;;;;;;20.16;47.35;98516.16;1751073;82;21487;-90
2021/09/30 13:06:39;;;;;;;9.93;4.80;;;;;;;20.08;47.73;98513.52;1757769;81;21001;-90
2021/09/30 13:09:20;;;;;;;12.03;5.62;;;;;;;20.02;47.83;98515.63;1753559;81;20963;-90
2021/09/30 13:11:55;;;;;;;11.97;5.25;;;;;;;19.79;47.35;98516.98;1743790;81;21058;-90
2021/09/30 13:14:30;;;;;;;10.75;5.50;;;;;;;19.59;47.71;98516.83;1745035;80;21014;-90
2021/09/30 13:17:14;;;;;;;10.53;5.22;;;;;;;19.38;48.13;98517.97;1746298;81;21012;-90
2021/09/30 13:19:56;;;;;;;13.65;5.95;;;;;;;19.28;48.73;98515.42;1745028;82;21050;-90
2021/09/30 13:22:35;;;;;;;11.80;5.05;;;;;;;19.15;48.06;98509.89;1757443;80;21061;-89
2021/09/30 13:25:18;;;;;;;10.95;5.33;;;;;;;19.11;49.28;98511.86;1775619;81;21049;-90
2021/09/30 13:27:47;;;;;;;6.47;4.33;;;;;;;19.17;50.14;98512.00;1761246;81;21404;-89
2021/09/30 13:30:28;;;;;;;10.72;4.67;;;;;;;19.06;49.57;98515.28;1745323;81;21380;-88
2021/09/30 13:32:58;;;;;;;6.83;4.20;;;;;;;18.95;49.90;98512.31;1744946;82;21420;-89
2021/09/30 13:35:28;;;;;;;8.63;4.20;;;;;;;18.91;50.16;98509.39;1748692;81;21019;-90
2021/09/30 13:37:57;;;;;;;6.45;4.25;;;;;;;18.83;50.56;98504.45;1765338;81;20960;-89
2021/09/30 13:40:25;;;;;;;10.00;4.67;;;;;;;18.55;51.14;98508.64;1760887;81;21026;-90
2021/09/30 13:42:53;;;;;;;7.67;4.55;;;;;;;18.47;51.65;98509.06;1744829;82;21026;-89
2021/09/30 13:45:21;;;;;;;8.15;4.42;;;;;;;18.27;52.47;98508.31;1761710;81;20961;-89
2021/09/30 13:47:49;;;;;;;11.25;4.85;;;;;;;18.13;52.58;98514.87;1765268;81;21012;-89
2021/09/30 13:50:20;;;;;;;9.65;4.70;;;;;;;18.09;52.44;98498.58;1762301;80;21010;-88
2021/09/30 13:52:50;;;;;;;10.65;6.15;;;;;;;18.06;52.94;98504.45;1744921;82;20983;-89
2021/09/30 13:55:18;;;;;;;6.37;4.58;;;;;;;17.94;53.45;98497.91;1761643;80;21067;-89
2021/09/30 13:57:45;;;;;;;9.03;4.87;;;;;;;17.91;53.58;98503.91;1765251;81;21039;-90
2021/09/30 14:00:15;;;;;;;7.62;4.53;;;;;;;17.75;54.23;98501.14;1762954;81;21569;-89
2021/09/30 14:02:45;;;;;;;9.73;5.25;;;;;;;17.72;54.03;98502.66;1745215;82;20991;-89
2021/09/30 14:05:15;;;;;;;9.03;5.30;;;;;;;17.67;54.17;98501.07;1745134;81;21026;-88
2021/09/30 14:07:42;;;;;;;9.88;4.95;;;;;;;17.57;55.21;98502.95;1744964;82;21057;-89
2021/09/30 14:10:15;;;;;;;8.95;5.62;;;;;;;17.38;56.08;98507.42;1745019;81;21057;-89
2021/09/30 14:12:43;;;;;;;8.43;4.37;;;;;;;17.26;56.19;98504.86;1745364;81;20962;-89
2021/09/30 14:15:12;;;;;;;9.60;4.53;;;;;;;17.28;56.40;98511.49;1759909;81;21012;-88
2021/09/30 14:17:40;;;;;;;10.32;4.60;;;;;;;17.17;57.05;98501.30;1765415;81;21429;-89
2021/09/30 14:20:09;;;;;;;11.15;4.83;;;;;;;17.21;56.36;98502.89;1764627;80;20996;-89
2021/09/30 14:22:36;;;;;;;8.85;4.75;;;;;;;17.23;56.78;98505.00;1744920;82;20983;-89
2021/09/30 14:25:05;;;;;;;10.48;5.28;;;;;;;17.24;56.59;98500.53;1758060;81;21047;-89
2021/09/30 14:27:34;;;;;;;8.18;4.90;;;;;;;17.19;57.03;98502.56;1765141;81;21001;-89
2021/09/30 14:30:00;;;;;;;13.83;5.50;;;;;;;17.01;57.94;98496.66;1764961;81;21390;-89
2021/09/30 14:32:27;;;;;;;11.68;5.15;;;;;;;16.94;58.48;98498.36;1774656;81;21022;-89
2021/09/30 14:34:54;;;;;;;9.15;5.55;;;;;;;16.94;58.05;98497.88;1757479;81;21395;-88
2021/09/30 14:37:20;;;;;;;9.03;5.30;;;;;;;16.92;58.73;98501.56;1744750;82;21041;-88
2021/09/30 14:39:47;;;;;;;9.48;4.97;;;;;;;16.81;58.64;98494.91;1744937;82;21002;-89